This is the latest recevied weather packets stored in our database for station/object WC4PEM. If no packets are shown the sender has not sent any weather packets the latest 1 day(s).
| Time | Temp. | Humidity | Pressure | Rain* | Wind** | Luminosity | Snow |
|---|---|---|---|---|---|---|---|
| 1778029561 | 25° C | 64% | 1014.6 hPa | 0 mm | - | - | - |
| 1778029466 | 25° C | 64% | 1014.6 hPa | 0 mm | - | - | - |
| 1778029166 | 25° C | 64% | 1014.5 hPa | 0 mm | - | - | - |
| 1778028866 | 25° C | 63% | 1014.4 hPa | 0 mm | - | - | - |
| 1778028755 | 25.56° C | 62% | 1014 hPa | 0 mm | - | - | - |
| 1778028266 | 25° C | 63% | 1014.3 hPa | 0 mm | - | - | - |
| 1778027666 | 25.56° C | 62% | 1014.2 hPa | 0 mm | - | - | - |
| 1778026700 | 26.11° C | 62% | 1014 hPa | 0 mm | - | - | - |
| 1778024967 | 26.67° C | 60% | 1013.7 hPa | 0 mm | - | - | - |
| 1778024667 | 27.22° C | 59% | 1013.7 hPa | 0 mm | - | - | - |
| 1778024616 | 27.22° C | 59% | 1013.5 hPa | 0 mm | - | - | - |
| 1778024367 | 27.22° C | 59% | 1013.5 hPa | 0 mm | - | - | - |
| 1778023467 | 28.33° C | 55% | 1013.5 hPa | 0 mm | - | - | - |
| 1778023167 | 28.33° C | 55% | 1013.5 hPa | 0 mm | - | - | - |
| 1778022867 | 28.89° C | 54% | 1013.4 hPa | 0 mm | - | - | - |
| 1778022567 | 28.89° C | 54% | 1013.4 hPa | 0 mm | - | - | - |
| 1778022267 | 28.89° C | 54% | 1013.5 hPa | 0 mm | - | - | - |
| 1778022144 | 28.89° C | 53% | 1013.5 hPa | 0 mm | - | - | - |
| 1778021967 | 28.89° C | 53% | 1013.5 hPa | 0 mm | - | - | - |
| 1778021667 | 28.89° C | 52% | 1013.5 hPa | 0 mm | - | - | - |
| 1778021367 | 29.44° C | 52% | 1013.5 hPa | 0 mm | - | - | - |
| 1778021067 | 29.44° C | 52% | 1013.5 hPa | 0 mm | - | - | - |
| 1778020767 | 29.44° C | 52% | 1013.5 hPa | 0 mm | - | - | - |
| 1778020590 | 29.44° C | 50% | 1013.5 hPa | 0 mm | - | - | - |
| 1778020167 | 30° C | 51% | 1013.4 hPa | 0 mm | - | - | - |
* Rain latest hour (hover to see other rain measurements)
** Current wind speed in m/s (hover to see current wind gust speed)